Port Hueneme CBC Base, California
Current Conditions -  °F | °C
As of 4:51 AM on Sunday 23 Nov 2014 (Local Time) from KOXR Reporting Station
Clear Clear  
Wind Chill: 54°   Ceiling: Unl
Heat Index: 54°   Visibility: 10mi
Dew Point: 45°   Wind: 3mph
Humidity: 72%   Direction: 70°ENE
Pressure: 30.05"   Gusts: NA
Location:  34.15°N, 119.19°W
Report Text: KOXR 231251Z AUTO 07003KT 10SM CLR 12/07 A3005 RMK AO2 SLP176 T01220072
Loading
Personal Weather Stations






























Interactive Weather Map New forecast layout! Learn more

10-Day Weather Forecast

Advertisements
Track Severe Weather on mobile